Shawano, Wisconsin
Current Conditions -  °F | °C
As of 12:35 PM on Sunday 21 Dec 2014 (Local Time) from KEZS Reporting Station
Haze Haze  
Wind Chill: 30°   Ceiling: 800
Heat Index: 35°   Visibility: 4mi
Dew Point: 32°   Wind: 6mph
Humidity: 88%   Direction: 170°S
Pressure: 30.03"   Gusts: NA
Location:  44.78°N, 88.61°W
Report Text: KEZS 211835Z AUTO 17005KT 4SM BR OVC008 02/00 A3003 RMK AO2 T00171001
Loading
Personal Weather Stations






























Interactive Weather Map New forecast layout! Learn more

10-Day Weather Forecast

Advertisements
Track Severe Weather on mobile